sensor_id;sensor_type;location;lat;lon;timestamp;P1;durP1;ratioP1;P2;durP2;ratioP2
57820;SDS011;43649;49.474;8.466;2022-09-03T00:01:44;2.50;;;0.85;;
57820;SDS011;43649;49.474;8.466;2022-09-03T00:04:15;5.35;;;1.00;;
57820;SDS011;43649;49.474;8.466;2022-09-03T00:06:47;7.22;;;0.95;;
57820;SDS011;43649;49.474;8.466;2022-09-03T00:09:18;2.97;;;1.02;;
57820;SDS011;43649;49.474;8.466;2022-09-03T00:11:51;1.88;;;0.93;;
57820;SDS011;43649;49.474;8.466;2022-09-03T00:16:54;0.75;;;0.75;;
57820;SDS011;43649;49.474;8.466;2022-09-03T00:19:25;7.10;;;1.10;;
57820;SDS011;43649;49.474;8.466;2022-09-03T00:21:53;4.68;;;0.90;;
57820;SDS011;43649;49.474;8.466;2022-09-03T00:24:22;1.08;;;1.00;;
57820;SDS011;43649;49.474;8.466;2022-09-03T00:26:54;1.05;;;0.90;;
57820;SDS011;43649;49.474;8.466;2022-09-03T00:29:26;1.92;;;0.82;;
57820;SDS011;43649;49.474;8.466;2022-09-03T00:31:59;1.02;;;1.00;;
57820;SDS011;43649;49.474;8.466;2022-09-03T00:34:30;2.65;;;0.70;;
57820;SDS011;43649;49.474;8.466;2022-09-03T00:36:59;3.10;;;1.00;;
57820;SDS011;43649;49.474;8.466;2022-09-03T00:39:26;0.90;;;0.90;;
57820;SDS011;43649;49.474;8.466;2022-09-03T00:41:59;3.63;;;1.13;;
57820;SDS011;43649;49.474;8.466;2022-09-03T00:44:47;5.55;;;1.10;;
57820;SDS011;43649;49.474;8.466;2022-09-03T00:47:26;2.22;;;1.20;;
57820;SDS011;43649;49.474;8.466;2022-09-03T00:50:02;1.60;;;1.20;;
57820;SDS011;43649;49.474;8.466;2022-09-03T00:52:38;2.25;;;1.00;;
57820;SDS011;43649;49.474;8.466;2022-09-03T00:55:09;4.53;;;1.20;;
57820;SDS011;43649;49.474;8.466;2022-09-03T00:57:43;0.95;;;0.95;;
57820;SDS011;43649;49.474;8.466;2022-09-03T01:02:50;4.07;;;0.90;;
57820;SDS011;43649;49.474;8.466;2022-09-03T01:08:11;0.80;;;0.80;;
57820;SDS011;43649;49.474;8.466;2022-09-03T01:10:45;1.95;;;0.80;;
57820;SDS011;43649;49.474;8.466;2022-09-03T01:13:20;0.75;;;0.75;;
57820;SDS011;43649;49.474;8.466;2022-09-03T01:15:51;0.80;;;0.80;;
57820;SDS011;43649;49.474;8.466;2022-09-03T01:18:30;0.60;;;0.60;;
57820;SDS011;43649;49.474;8.466;2022-09-03T01:21:17;1.20;;;1.10;;
57820;SDS011;43649;49.474;8.466;2022-09-03T01:24:18;1.17;;;1.10;;
57820;SDS011;43649;49.474;8.466;2022-09-03T01:27:13;2.83;;;0.93;;
57820;SDS011;43649;49.474;8.466;2022-09-03T01:29:48;0.88;;;0.88;;
57820;SDS011;43649;49.474;8.466;2022-09-03T01:32:21;1.05;;;0.70;;
57820;SDS011;43649;49.474;8.466;2022-09-03T01:34:52;1.70;;;0.90;;
57820;SDS011;43649;49.474;8.466;2022-09-03T01:37:26;1.63;;;0.77;;
57820;SDS011;43649;49.474;8.466;2022-09-03T01:40:02;0.68;;;0.68;;
57820;SDS011;43649;49.474;8.466;2022-09-03T01:42:37;3.55;;;0.90;;
57820;SDS011;43649;49.474;8.466;2022-09-03T01:48:09;1.15;;;0.75;;
57820;SDS011;43649;49.474;8.466;2022-09-03T01:50:47;1.48;;;0.82;;
57820;SDS011;43649;49.474;8.466;2022-09-03T01:53:19;5.18;;;0.75;;
57820;SDS011;43649;49.474;8.466;2022-09-03T01:56:07;3.45;;;1.30;;
57820;SDS011;43649;49.474;8.466;2022-09-03T01:58:44;4.72;;;0.93;;
57820;SDS011;43649;49.474;8.466;2022-09-03T02:01:16;1.02;;;0.90;;
57820;SDS011;43649;49.474;8.466;2022-09-03T02:06:12;2.17;;;1.00;;
57820;SDS011;43649;49.474;8.466;2022-09-03T02:08:39;3.70;;;1.00;;
57820;SDS011;43649;49.474;8.466;2022-09-03T02:11:04;4.68;;;1.00;;
57820;SDS011;43649;49.474;8.466;2022-09-03T02:13:34;2.28;;;1.02;;
57820;SDS011;43649;49.474;8.466;2022-09-03T02:16:05;0.80;;;0.80;;
57820;SDS011;43649;49.474;8.466;2022-09-03T02:18:37;1.10;;;0.82;;
57820;SDS011;43649;49.474;8.466;2022-09-03T02:21:06;0.90;;;0.90;;
57820;SDS011;43649;49.474;8.466;2022-09-03T02:23:32;1.48;;;1.00;;
57820;SDS011;43649;49.474;8.466;2022-09-03T02:25:59;6.78;;;1.20;;
57820;SDS011;43649;49.474;8.466;2022-09-03T02:28:26;2.70;;;1.35;;
57820;SDS011;43649;49.474;8.466;2022-09-03T02:30:53;0.70;;;0.70;;
57820;SDS011;43649;49.474;8.466;2022-09-03T02:33:18;1.70;;;0.90;;
57820;SDS011;43649;49.474;8.466;2022-09-03T02:35:45;1.13;;;0.70;;
57820;SDS011;43649;49.474;8.466;2022-09-03T02:38:11;0.63;;;0.52;;
57820;SDS011;43649;49.474;8.466;2022-09-03T02:40:38;1.23;;;0.90;;
57820;SDS011;43649;49.474;8.466;2022-09-03T02:43:03;1.10;;;0.80;;
57820;SDS011;43649;49.474;8.466;2022-09-03T02:45:33;2.08;;;0.80;;
57820;SDS011;43649;49.474;8.466;2022-09-03T02:48:01;0.75;;;0.75;;
57820;SDS011;43649;49.474;8.466;2022-09-03T02:50:28;1.52;;;0.82;;
57820;SDS011;43649;49.474;8.466;2022-09-03T02:52:55;4.22;;;0.73;;
57820;SDS011;43649;49.474;8.466;2022-09-03T02:55:20;0.73;;;0.73;;
57820;SDS011;43649;49.474;8.466;2022-09-03T02:57:46;1.00;;;1.00;;
57820;SDS011;43649;49.474;8.466;2022-09-03T03:00:12;3.90;;;0.80;;
57820;SDS011;43649;49.474;8.466;2022-09-03T03:02:38;8.77;;;1.55;;
57820;SDS011;43649;49.474;8.466;2022-09-03T03:05:04;1.40;;;0.85;;
57820;SDS011;43649;49.474;8.466;2022-09-03T03:07:31;0.70;;;0.70;;
57820;SDS011;43649;49.474;8.466;2022-09-03T03:10:02;1.17;;;1.08;;
57820;SDS011;43649;49.474;8.466;2022-09-03T03:12:28;0.73;;;0.70;;
57820;SDS011;43649;49.474;8.466;2022-09-03T03:14:53;4.55;;;0.68;;
57820;SDS011;43649;49.474;8.466;2022-09-03T03:17:19;3.17;;;0.90;;
57820;SDS011;43649;49.474;8.466;2022-09-03T03:19:44;0.80;;;0.80;;
57820;SDS011;43649;49.474;8.466;2022-09-03T03:22:10;1.30;;;0.82;;
57820;SDS011;43649;49.474;8.466;2022-09-03T03:24:35;0.80;;;0.80;;
57820;SDS011;43649;49.474;8.466;2022-09-03T03:27:02;1.05;;;0.70;;
57820;SDS011;43649;49.474;8.466;2022-09-03T03:29:27;3.20;;;0.88;;
57820;SDS011;43649;49.474;8.466;2022-09-03T03:31:53;3.50;;;1.15;;
57820;SDS011;43649;49.474;8.466;2022-09-03T03:34:18;1.33;;;0.85;;
57820;SDS011;43649;49.474;8.466;2022-09-03T03:36:44;1.30;;;1.30;;
57820;SDS011;43649;49.474;8.466;2022-09-03T03:39:09;1.33;;;1.25;;
57820;SDS011;43649;49.474;8.466;2022-09-03T03:41:35;3.72;;;1.60;;
57820;SDS011;43649;49.474;8.466;2022-09-03T03:44:02;3.33;;;1.13;;
57820;SDS011;43649;49.474;8.466;2022-09-03T03:46:30;1.38;;;1.38;;
57820;SDS011;43649;49.474;8.466;2022-09-03T03:48:57;1.15;;;1.05;;
57820;SDS011;43649;49.474;8.466;2022-09-03T03:51:22;1.50;;;0.90;;
57820;SDS011;43649;49.474;8.466;2022-09-03T03:53:48;1.00;;;1.00;;
57820;SDS011;43649;49.474;8.466;2022-09-03T03:56:17;3.35;;;0.80;;
57820;SDS011;43649;49.474;8.466;2022-09-03T03:58:42;7.47;;;1.33;;
57820;SDS011;43649;49.474;8.466;2022-09-03T04:01:10;1.08;;;1.02;;
57820;SDS011;43649;49.474;8.466;2022-09-03T04:03:36;3.90;;;1.23;;
57820;SDS011;43649;49.474;8.466;2022-09-03T04:06:03;5.82;;;2.20;;
57820;SDS011;43649;49.474;8.466;2022-09-03T04:08:29;0.80;;;0.80;;
57820;SDS011;43649;49.474;8.466;2022-09-03T04:10:58;3.45;;;1.00;;
57820;SDS011;43649;49.474;8.466;2022-09-03T04:13:27;2.38;;;1.13;;
57820;SDS011;43649;49.474;8.466;2022-09-03T04:15:58;1.90;;;1.02;;
57820;SDS011;43649;49.474;8.466;2022-09-03T04:18:25;4.28;;;1.23;;
57820;SDS011;43649;49.474;8.466;2022-09-03T04:20:51;1.30;;;1.20;;
57820;SDS011;43649;49.474;8.466;2022-09-03T04:23:16;13.35;;;1.40;;
57820;SDS011;43649;49.474;8.466;2022-09-03T04:25:42;4.82;;;1.00;;
57820;SDS011;43649;49.474;8.466;2022-09-03T04:28:07;0.93;;;0.93;;
57820;SDS011;43649;49.474;8.466;2022-09-03T04:30:32;1.08;;;1.00;;
57820;SDS011;43649;49.474;8.466;2022-09-03T04:32:58;5.90;;;0.80;;
57820;SDS011;43649;49.474;8.466;2022-09-03T04:35:25;1.20;;;1.10;;
57820;SDS011;43649;49.474;8.466;2022-09-03T04:37:51;1.75;;;1.00;;
57820;SDS011;43649;49.474;8.466;2022-09-03T04:40:16;1.27;;;1.08;;
57820;SDS011;43649;49.474;8.466;2022-09-03T04:42:41;9.63;;;1.05;;
57820;SDS011;43649;49.474;8.466;2022-09-03T04:45:07;1.80;;;0.98;;
57820;SDS011;43649;49.474;8.466;2022-09-03T04:47:34;2.95;;;0.80;;
57820;SDS011;43649;49.474;8.466;2022-09-03T04:49:59;2.08;;;0.75;;
57820;SDS011;43649;49.474;8.466;2022-09-03T04:52:27;3.65;;;1.02;;
57820;SDS011;43649;49.474;8.466;2022-09-03T04:54:52;1.48;;;1.02;;
57820;SDS011;43649;49.474;8.466;2022-09-03T04:57:18;1.33;;;1.23;;
57820;SDS011;43649;49.474;8.466;2022-09-03T04:59:43;0.90;;;0.90;;
57820;SDS011;43649;49.474;8.466;2022-09-03T05:02:09;1.00;;;1.00;;
57820;SDS011;43649;49.474;8.466;2022-09-03T05:04:34;2.83;;;1.00;;
57820;SDS011;43649;49.474;8.466;2022-09-03T05:06:59;4.55;;;1.13;;
57820;SDS011;43649;49.474;8.466;2022-09-03T05:09:26;7.15;;;1.05;;
57820;SDS011;43649;49.474;8.466;2022-09-03T05:11:52;5.18;;;1.08;;
57820;SDS011;43649;49.474;8.466;2022-09-03T05:14:17;3.83;;;1.20;;
57820;SDS011;43649;49.474;8.466;2022-09-03T05:16:42;2.92;;;0.93;;
57820;SDS011;43649;49.474;8.466;2022-09-03T05:19:08;1.30;;;1.20;;
57820;SDS011;43649;49.474;8.466;2022-09-03T05:21:33;0.93;;;0.82;;
57820;SDS011;43649;49.474;8.466;2022-09-03T05:23:59;3.25;;;1.10;;
57820;SDS011;43649;49.474;8.466;2022-09-03T05:26:27;0.85;;;0.85;;
57820;SDS011;43649;49.474;8.466;2022-09-03T05:28:54;2.42;;;1.00;;
57820;SDS011;43649;49.474;8.466;2022-09-03T05:31:21;6.65;;;1.13;;
57820;SDS011;43649;49.474;8.466;2022-09-03T05:33:47;3.85;;;1.00;;
57820;SDS011;43649;49.474;8.466;2022-09-03T05:36:15;0.70;;;0.70;;
57820;SDS011;43649;49.474;8.466;2022-09-03T05:38:42;3.38;;;0.93;;
57820;SDS011;43649;49.474;8.466;2022-09-03T05:41:08;1.27;;;0.88;;
57820;SDS011;43649;49.474;8.466;2022-09-03T05:43:37;0.85;;;0.85;;
57820;SDS011;43649;49.474;8.466;2022-09-03T05:46:04;1.05;;;0.88;;
57820;SDS011;43649;49.474;8.466;2022-09-03T05:48:31;2.65;;;0.90;;
57820;SDS011;43649;49.474;8.466;2022-09-03T05:50:58;2.65;;;1.17;;
57820;SDS011;43649;49.474;8.466;2022-09-03T05:53:24;3.28;;;0.90;;
57820;SDS011;43649;49.474;8.466;2022-09-03T05:55:53;6.07;;;1.00;;
57820;SDS011;43649;49.474;8.466;2022-09-03T05:58:19;2.58;;;1.00;;
57820;SDS011;43649;49.474;8.466;2022-09-03T06:00:46;2.70;;;0.98;;
57820;SDS011;43649;49.474;8.466;2022-09-03T06:03:11;1.23;;;1.10;;
57820;SDS011;43649;49.474;8.466;2022-09-03T06:05:37;2.25;;;0.85;;
57820;SDS011;43649;49.474;8.466;2022-09-03T06:08:02;3.22;;;0.80;;
57820;SDS011;43649;49.474;8.466;2022-09-03T06:10:27;2.95;;;0.88;;
57820;SDS011;43649;49.474;8.466;2022-09-03T06:12:53;1.00;;;0.90;;
57820;SDS011;43649;49.474;8.466;2022-09-03T06:15:18;1.25;;;0.80;;
57820;SDS011;43649;49.474;8.466;2022-09-03T06:17:45;0.93;;;0.93;;
57820;SDS011;43649;49.474;8.466;2022-09-03T06:20:11;2.72;;;1.58;;
57820;SDS011;43649;49.474;8.466;2022-09-03T06:22:37;2.38;;;1.10;;
57820;SDS011;43649;49.474;8.466;2022-09-03T06:25:02;6.40;;;1.25;;
57820;SDS011;43649;49.474;8.466;2022-09-03T06:27:29;2.53;;;1.23;;
57820;SDS011;43649;49.474;8.466;2022-09-03T06:29:54;3.63;;;1.20;;
57820;SDS011;43649;49.474;8.466;2022-09-03T06:32:19;3.08;;;1.08;;
57820;SDS011;43649;49.474;8.466;2022-09-03T06:34:46;1.42;;;1.10;;
57820;SDS011;43649;49.474;8.466;2022-09-03T06:37:11;1.83;;;1.10;;
57820;SDS011;43649;49.474;8.466;2022-09-03T06:39:37;2.33;;;1.02;;
57820;SDS011;43649;49.474;8.466;2022-09-03T06:42:02;2.50;;;1.20;;
57820;SDS011;43649;49.474;8.466;2022-09-03T06:44:34;1.10;;;1.10;;
57820;SDS011;43649;49.474;8.466;2022-09-03T06:46:59;2.75;;;1.17;;
57820;SDS011;43649;49.474;8.466;2022-09-03T06:49:24;1.73;;;1.25;;
57820;SDS011;43649;49.474;8.466;2022-09-03T06:51:51;6.38;;;1.60;;
57820;SDS011;43649;49.474;8.466;2022-09-03T06:54:16;5.95;;;1.35;;
57820;SDS011;43649;49.474;8.466;2022-09-03T06:56:42;8.95;;;2.40;;
57820;SDS011;43649;49.474;8.466;2022-09-03T06:59:08;7.32;;;2.95;;
57820;SDS011;43649;49.474;8.466;2022-09-03T07:01:35;2.05;;;1.48;;
57820;SDS011;43649;49.474;8.466;2022-09-03T07:04:01;3.55;;;1.52;;
57820;SDS011;43649;49.474;8.466;2022-09-03T07:06:28;2.55;;;1.48;;
57820;SDS011;43649;49.474;8.466;2022-09-03T07:08:56;1.50;;;1.40;;
57820;SDS011;43649;49.474;8.466;2022-09-03T07:11:23;3.40;;;1.40;;
57820;SDS011;43649;49.474;8.466;2022-09-03T07:13:50;7.28;;;1.80;;
57820;SDS011;43649;49.474;8.466;2022-09-03T07:16:16;3.03;;;1.70;;
57820;SDS011;43649;49.474;8.466;2022-09-03T07:18:43;2.03;;;1.40;;
57820;SDS011;43649;49.474;8.466;2022-09-03T07:21:10;2.05;;;1.85;;
57820;SDS011;43649;49.474;8.466;2022-09-03T07:23:37;4.43;;;1.90;;
57820;SDS011;43649;49.474;8.466;2022-09-03T07:26:06;6.53;;;1.98;;
57820;SDS011;43649;49.474;8.466;2022-09-03T07:28:33;1.58;;;1.48;;
57820;SDS011;43649;49.474;8.466;2022-09-03T07:31:02;15.57;;;4.07;;
57820;SDS011;43649;49.474;8.466;2022-09-03T07:33:29;2.95;;;2.25;;
57820;SDS011;43649;49.474;8.466;2022-09-03T07:35:54;3.00;;;1.88;;
57820;SDS011;43649;49.474;8.466;2022-09-03T07:38:20;2.38;;;1.80;;
57820;SDS011;43649;49.474;8.466;2022-09-03T07:40:45;3.63;;;1.60;;
57820;SDS011;43649;49.474;8.466;2022-09-03T07:43:12;1.95;;;1.85;;
57820;SDS011;43649;49.474;8.466;2022-09-03T07:45:38;1.80;;;1.70;;
57820;SDS011;43649;49.474;8.466;2022-09-03T07:48:03;2.40;;;2.17;;
57820;SDS011;43649;49.474;8.466;2022-09-03T07:50:29;1.70;;;1.60;;
57820;SDS011;43649;49.474;8.466;2022-09-03T07:52:58;7.60;;;2.20;;
57820;SDS011;43649;49.474;8.466;2022-09-03T07:55:23;2.13;;;1.90;;
57820;SDS011;43649;49.474;8.466;2022-09-03T07:57:53;8.65;;;2.20;;
57820;SDS011;43649;49.474;8.466;2022-09-03T08:00:21;2.42;;;2.00;;
57820;SDS011;43649;49.474;8.466;2022-09-03T08:02:46;2.65;;;2.20;;
57820;SDS011;43649;49.474;8.466;2022-09-03T08:05:12;3.83;;;2.42;;
57820;SDS011;43649;49.474;8.466;2022-09-03T08:07:38;4.65;;;2.50;;
57820;SDS011;43649;49.474;8.466;2022-09-03T08:10:04;3.92;;;1.98;;
57820;SDS011;43649;49.474;8.466;2022-09-03T08:12:30;11.20;;;3.15;;
57820;SDS011;43649;49.474;8.466;2022-09-03T08:14:56;12.35;;;2.50;;
57820;SDS011;43649;49.474;8.466;2022-09-03T08:17:23;2.67;;;2.40;;
57820;SDS011;43649;49.474;8.466;2022-09-03T08:19:48;5.97;;;3.30;;
57820;SDS011;43649;49.474;8.466;2022-09-03T08:22:14;6.90;;;3.72;;
57820;SDS011;43649;49.474;8.466;2022-09-03T08:24:39;4.47;;;3.38;;
57820;SDS011;43649;49.474;8.466;2022-09-03T08:27:04;5.20;;;3.60;;
57820;SDS011;43649;49.474;8.466;2022-09-03T08:29:30;10.00;;;3.90;;
57820;SDS011;43649;49.474;8.466;2022-09-03T08:31:55;6.05;;;4.00;;
57820;SDS011;43649;49.474;8.466;2022-09-03T08:34:22;6.28;;;3.80;;
57820;SDS011;43649;49.474;8.466;2022-09-03T08:36:48;6.18;;;3.70;;
57820;SDS011;43649;49.474;8.466;2022-09-03T08:39:13;3.47;;;2.92;;
57820;SDS011;43649;49.474;8.466;2022-09-03T08:41:45;12.30;;;4.20;;
57820;SDS011;43649;49.474;8.466;2022-09-03T08:44:23;7.55;;;3.92;;
57820;SDS011;43649;49.474;8.466;2022-09-03T08:46:53;4.60;;;3.42;;
57820;SDS011;43649;49.474;8.466;2022-09-03T08:49:25;6.00;;;3.08;;
57820;SDS011;43649;49.474;8.466;2022-09-03T08:51:55;4.93;;;3.15;;
57820;SDS011;43649;49.474;8.466;2022-09-03T08:54:23;10.93;;;3.40;;
57820;SDS011;43649;49.474;8.466;2022-09-03T08:56:54;2.58;;;2.42;;
57820;SDS011;43649;49.474;8.466;2022-09-03T08:59:23;3.85;;;2.50;;
57820;SDS011;43649;49.474;8.466;2022-09-03T09:01:51;5.70;;;3.28;;
57820;SDS011;43649;49.474;8.466;2022-09-03T09:04:26;5.75;;;3.60;;
57820;SDS011;43649;49.474;8.466;2022-09-03T09:07:02;4.45;;;3.55;;
57820;SDS011;43649;49.474;8.466;2022-09-03T09:09:36;4.25;;;3.05;;
57820;SDS011;43649;49.474;8.466;2022-09-03T09:12:12;7.35;;;2.90;;
57820;SDS011;43649;49.474;8.466;2022-09-03T09:14:47;10.40;;;3.67;;
57820;SDS011;43649;49.474;8.466;2022-09-03T09:17:28;10.73;;;3.38;;
57820;SDS011;43649;49.474;8.466;2022-09-03T09:20:08;3.83;;;3.08;;
57820;SDS011;43649;49.474;8.466;2022-09-03T09:22:44;2.80;;;2.60;;
57820;SDS011;43649;49.474;8.466;2022-09-03T09:25:13;3.97;;;3.05;;
57820;SDS011;43649;49.474;8.466;2022-09-03T09:27:46;3.97;;;3.15;;
57820;SDS011;43649;49.474;8.466;2022-09-03T09:30:15;8.43;;;2.75;;
57820;SDS011;43649;49.474;8.466;2022-09-03T09:32:42;2.70;;;2.50;;
57820;SDS011;43649;49.474;8.466;2022-09-03T09:35:09;2.97;;;2.28;;
57820;SDS011;43649;49.474;8.466;2022-09-03T09:37:45;4.20;;;2.28;;
57820;SDS011;43649;49.474;8.466;2022-09-03T09:40:11;3.70;;;2.55;;
57820;SDS011;43649;49.474;8.466;2022-09-03T09:42:47;3.17;;;2.30;;
57820;SDS011;43649;49.474;8.466;2022-09-03T09:45:14;2.47;;;2.13;;
57820;SDS011;43649;49.474;8.466;2022-09-03T09:47:39;4.18;;;2.78;;
57820;SDS011;43649;49.474;8.466;2022-09-03T09:50:15;3.63;;;2.50;;
57820;SDS011;43649;49.474;8.466;2022-09-03T09:52:42;2.22;;;2.03;;
57820;SDS011;43649;49.474;8.466;2022-09-03T09:55:08;7.38;;;2.50;;
57820;SDS011;43649;49.474;8.466;2022-09-03T09:57:38;4.30;;;2.50;;
57820;SDS011;43649;49.474;8.466;2022-09-03T10:00:05;4.55;;;2.42;;
57820;SDS011;43649;49.474;8.466;2022-09-03T10:02:36;3.28;;;2.85;;
57820;SDS011;43649;49.474;8.466;2022-09-03T10:05:11;2.20;;;2.10;;
57820;SDS011;43649;49.474;8.466;2022-09-03T10:07:40;3.63;;;2.20;;
57820;SDS011;43649;49.474;8.466;2022-09-03T10:10:07;2.25;;;2.10;;
57820;SDS011;43649;49.474;8.466;2022-09-03T10:12:40;2.60;;;2.40;;
57820;SDS011;43649;49.474;8.466;2022-09-03T10:15:10;2.47;;;2.28;;
57820;SDS011;43649;49.474;8.466;2022-09-03T10:17:45;2.88;;;2.63;;
57820;SDS011;43649;49.474;8.466;2022-09-03T10:20:18;2.90;;;2.70;;
57820;SDS011;43649;49.474;8.466;2022-09-03T10:22:49;2.65;;;2.45;;
57820;SDS011;43649;49.474;8.466;2022-09-03T10:25:18;7.10;;;2.55;;
57820;SDS011;43649;49.474;8.466;2022-09-03T10:27:46;4.93;;;2.92;;
57820;SDS011;43649;49.474;8.466;2022-09-03T10:30:12;5.22;;;2.70;;
57820;SDS011;43649;49.474;8.466;2022-09-03T10:32:39;3.28;;;2.95;;
57820;SDS011;43649;49.474;8.466;2022-09-03T10:35:14;3.30;;;3.00;;
57820;SDS011;43649;49.474;8.466;2022-09-03T10:40:19;3.10;;;2.50;;
57820;SDS011;43649;49.474;8.466;2022-09-03T10:42:53;9.20;;;3.22;;
57820;SDS011;43649;49.474;8.466;2022-09-03T10:45:33;7.55;;;4.65;;
57820;SDS011;43649;49.474;8.466;2022-09-03T10:48:12;3.60;;;2.58;;
57820;SDS011;43649;49.474;8.466;2022-09-03T10:50:47;4.93;;;4.15;;
57820;SDS011;43649;49.474;8.466;2022-09-03T10:53:27;6.97;;;4.00;;
57820;SDS011;43649;49.474;8.466;2022-09-03T10:55:59;3.22;;;2.97;;
57820;SDS011;43649;49.474;8.466;2022-09-03T10:58:42;3.67;;;2.97;;
57820;SDS011;43649;49.474;8.466;2022-09-03T11:01:20;5.03;;;3.08;;
57820;SDS011;43649;49.474;8.466;2022-09-03T11:03:53;2.53;;;2.43;;
57820;SDS011;43649;49.474;8.466;2022-09-03T11:06:27;4.05;;;3.05;;
57820;SDS011;43649;49.474;8.466;2022-09-03T11:08:55;3.55;;;2.70;;
57820;SDS011;43649;49.474;8.466;2022-09-03T11:11:25;3.58;;;3.25;;
57820;SDS011;43649;49.474;8.466;2022-09-03T11:13:55;3.03;;;2.40;;
57820;SDS011;43649;49.474;8.466;2022-09-03T11:16:27;2.35;;;2.25;;
57820;SDS011;43649;49.474;8.466;2022-09-03T11:18:56;3.05;;;2.35;;
57820;SDS011;43649;49.474;8.466;2022-09-03T11:21:27;2.97;;;2.35;;
57820;SDS011;43649;49.474;8.466;2022-09-03T11:24:00;2.38;;;2.28;;
57820;SDS011;43649;49.474;8.466;2022-09-03T11:26:31;2.15;;;2.05;;
57820;SDS011;43649;49.474;8.466;2022-09-03T11:28:58;2.75;;;2.55;;
57820;SDS011;43649;49.474;8.466;2022-09-03T11:31:32;4.55;;;2.25;;
57820;SDS011;43649;49.474;8.466;2022-09-03T11:34:24;2.25;;;2.15;;
57820;SDS011;43649;49.474;8.466;2022-09-03T11:37:02;2.30;;;2.20;;
57820;SDS011;43649;49.474;8.466;2022-09-03T11:39:33;3.92;;;2.00;;
57820;SDS011;43649;49.474;8.466;2022-09-03T11:42:03;2.13;;;1.92;;
57820;SDS011;43649;49.474;8.466;2022-09-03T11:44:34;2.30;;;2.10;;
57820;SDS011;43649;49.474;8.466;2022-09-03T11:47:01;2.00;;;1.63;;
57820;SDS011;43649;49.474;8.466;2022-09-03T11:49:43;1.30;;;1.20;;
57820;SDS011;43649;49.474;8.466;2022-09-03T11:52:09;1.30;;;1.20;;
57820;SDS011;43649;49.474;8.466;2022-09-03T11:54:43;0.95;;;0.95;;
57820;SDS011;43649;49.474;8.466;2022-09-03T11:57:10;1.17;;;1.13;;
57820;SDS011;43649;49.474;8.466;2022-09-03T11:59:38;1.10;;;1.10;;
57820;SDS011;43649;49.474;8.466;2022-09-03T12:02:10;1.30;;;1.30;;
57820;SDS011;43649;49.474;8.466;2022-09-03T12:04:45;1.05;;;0.98;;
57820;SDS011;43649;49.474;8.466;2022-09-03T12:07:35;1.75;;;0.90;;
57820;SDS011;43649;49.474;8.466;2022-09-03T12:13:11;3.45;;;1.05;;
57820;SDS011;43649;49.474;8.466;2022-09-03T12:18:49;1.92;;;1.02;;
57820;SDS011;43649;49.474;8.466;2022-09-03T12:21:18;4.30;;;1.10;;
57820;SDS011;43649;49.474;8.466;2022-09-03T12:23:47;0.80;;;0.80;;
57820;SDS011;43649;49.474;8.466;2022-09-03T12:26:15;4.78;;;0.90;;
57820;SDS011;43649;49.474;8.466;2022-09-03T12:28:42;1.60;;;1.50;;
57820;SDS011;43649;49.474;8.466;2022-09-03T12:31:13;1.00;;;1.00;;
57820;SDS011;43649;49.474;8.466;2022-09-03T12:33:41;0.82;;;0.82;;
57820;SDS011;43649;49.474;8.466;2022-09-03T12:36:07;1.88;;;1.08;;
57820;SDS011;43649;49.474;8.466;2022-09-03T12:38:33;0.80;;;0.80;;
57820;SDS011;43649;49.474;8.466;2022-09-03T12:40:58;1.52;;;0.98;;
57820;SDS011;43649;49.474;8.466;2022-09-03T12:43:27;1.70;;;1.17;;
57820;SDS011;43649;49.474;8.466;2022-09-03T12:45:53;1.05;;;1.02;;
57820;SDS011;43649;49.474;8.466;2022-09-03T12:48:19;2.30;;;2.20;;
57820;SDS011;43649;49.474;8.466;2022-09-03T12:50:46;1.02;;;1.02;;
57820;SDS011;43649;49.474;8.466;2022-09-03T12:53:13;0.90;;;0.90;;
57820;SDS011;43649;49.474;8.466;2022-09-03T12:55:45;2.75;;;1.30;;
57820;SDS011;43649;49.474;8.466;2022-09-03T12:58:16;2.08;;;1.17;;
57820;SDS011;43649;49.474;8.466;2022-09-03T13:00:47;0.98;;;0.98;;
57820;SDS011;43649;49.474;8.466;2022-09-03T13:03:17;1.63;;;1.35;;
57820;SDS011;43649;49.474;8.466;2022-09-03T13:05:45;1.13;;;1.00;;
57820;SDS011;43649;49.474;8.466;2022-09-03T13:08:16;1.15;;;1.15;;
57820;SDS011;43649;49.474;8.466;2022-09-03T13:10:48;1.35;;;1.10;;
57820;SDS011;43649;49.474;8.466;2022-09-03T13:13:19;1.52;;;1.35;;
57820;SDS011;43649;49.474;8.466;2022-09-03T13:16:04;1.25;;;1.20;;
57820;SDS011;43649;49.474;8.466;2022-09-03T13:18:43;1.42;;;1.42;;
57820;SDS011;43649;49.474;8.466;2022-09-03T13:21:20;1.27;;;1.20;;
57820;SDS011;43649;49.474;8.466;2022-09-03T13:24:02;2.78;;;1.38;;
57820;SDS011;43649;49.474;8.466;2022-09-03T13:26:52;1.65;;;1.55;;
57820;SDS011;43649;49.474;8.466;2022-09-03T13:29:36;4.30;;;1.92;;
57820;SDS011;43649;49.474;8.466;2022-09-03T13:32:11;1.60;;;1.50;;
57820;SDS011;43649;49.474;8.466;2022-09-03T13:34:53;1.80;;;1.67;;
57820;SDS011;43649;49.474;8.466;2022-09-03T13:37:23;1.70;;;1.70;;
57820;SDS011;43649;49.474;8.466;2022-09-03T13:39:59;2.30;;;2.10;;
57820;SDS011;43649;49.474;8.466;2022-09-03T13:42:34;3.33;;;1.65;;
57820;SDS011;43649;49.474;8.466;2022-09-03T13:45:04;3.70;;;1.98;;
57820;SDS011;43649;49.474;8.466;2022-09-03T13:47:42;2.50;;;2.38;;
57820;SDS011;43649;49.474;8.466;2022-09-03T13:50:15;1.92;;;1.83;;
57820;SDS011;43649;49.474;8.466;2022-09-03T13:52:46;3.30;;;2.25;;
57820;SDS011;43649;49.474;8.466;2022-09-03T13:55:17;2.70;;;2.50;;
57820;SDS011;43649;49.474;8.466;2022-09-03T13:57:48;2.25;;;2.10;;
57820;SDS011;43649;49.474;8.466;2022-09-03T14:00:24;2.17;;;2.08;;
57820;SDS011;43649;49.474;8.466;2022-09-03T14:03:02;2.80;;;2.63;;
57820;SDS011;43649;49.474;8.466;2022-09-03T14:05:39;2.40;;;2.30;;
57820;SDS011;43649;49.474;8.466;2022-09-03T14:08:12;2.85;;;2.65;;
57820;SDS011;43649;49.474;8.466;2022-09-03T14:10:51;2.83;;;2.63;;
57820;SDS011;43649;49.474;8.466;2022-09-03T14:13:25;3.78;;;2.65;;
57820;SDS011;43649;49.474;8.466;2022-09-03T14:15:57;4.17;;;3.10;;
57820;SDS011;43649;49.474;8.466;2022-09-03T14:18:36;4.43;;;2.70;;
57820;SDS011;43649;49.474;8.466;2022-09-03T14:21:07;3.05;;;2.28;;
57820;SDS011;43649;49.474;8.466;2022-09-03T14:23:41;3.20;;;3.00;;
57820;SDS011;43649;49.474;8.466;2022-09-03T14:26:15;2.20;;;1.98;;
57820;SDS011;43649;49.474;8.466;2022-09-03T14:28:47;2.38;;;2.28;;
57820;SDS011;43649;49.474;8.466;2022-09-03T14:31:23;3.72;;;2.17;;
57820;SDS011;43649;49.474;8.466;2022-09-03T14:34:02;3.22;;;2.92;;
57820;SDS011;43649;49.474;8.466;2022-09-03T14:36:39;2.45;;;2.22;;
57820;SDS011;43649;49.474;8.466;2022-09-03T14:39:16;2.28;;;2.10;;
57820;SDS011;43649;49.474;8.466;2022-09-03T14:42:10;5.32;;;1.90;;
57820;SDS011;43649;49.474;8.466;2022-09-03T14:44:57;2.60;;;2.25;;
57820;SDS011;43649;49.474;8.466;2022-09-03T14:47:40;2.75;;;2.55;;
57820;SDS011;43649;49.474;8.466;2022-09-03T14:50:24;5.45;;;2.70;;
57820;SDS011;43649;49.474;8.466;2022-09-03T14:53:08;2.58;;;2.38;;
57820;SDS011;43649;49.474;8.466;2022-09-03T14:55:49;2.80;;;2.60;;
57820;SDS011;43649;49.474;8.466;2022-09-03T14:58:24;5.70;;;2.63;;
57820;SDS011;43649;49.474;8.466;2022-09-03T15:01:05;3.42;;;3.13;;
57820;SDS011;43649;49.474;8.466;2022-09-03T15:03:42;6.05;;;2.90;;
57820;SDS011;43649;49.474;8.466;2022-09-03T15:06:24;3.35;;;2.50;;
57820;SDS011;43649;49.474;8.466;2022-09-03T15:09:07;2.55;;;2.33;;
57820;SDS011;43649;49.474;8.466;2022-09-03T15:11:45;2.03;;;1.92;;
57820;SDS011;43649;49.474;8.466;2022-09-03T15:14:17;2.50;;;2.30;;
57820;SDS011;43649;49.474;8.466;2022-09-03T15:16:48;2.40;;;2.20;;
57820;SDS011;43649;49.474;8.466;2022-09-03T15:19:27;5.32;;;2.70;;
57820;SDS011;43649;49.474;8.466;2022-09-03T15:22:09;2.92;;;2.42;;
57820;SDS011;43649;49.474;8.466;2022-09-03T15:24:47;2.13;;;1.92;;
57820;SDS011;43649;49.474;8.466;2022-09-03T15:27:21;5.45;;;2.00;;
57820;SDS011;43649;49.474;8.466;2022-09-03T15:30:13;2.22;;;2.03;;